sensor_id;sensor_type;location;lat;lon;timestamp;P1;durP1;ratioP1;P2;durP2;ratioP2
15271;SDS011;7737;51.578;7.268;2023-05-20T00:00:43;3.20;;;2.08;;
15271;SDS011;7737;51.578;7.268;2023-05-20T00:03:10;2.97;;;1.83;;
15271;SDS011;7737;51.578;7.268;2023-05-20T00:05:37;2.60;;;2.20;;
15271;SDS011;7737;51.578;7.268;2023-05-20T00:08:03;3.08;;;1.83;;
15271;SDS011;7737;51.578;7.268;2023-05-20T00:10:33;3.05;;;1.90;;
15271;SDS011;7737;51.578;7.268;2023-05-20T00:13:01;3.13;;;2.03;;
15271;SDS011;7737;51.578;7.268;2023-05-20T00:15:27;2.78;;;1.77;;
15271;SDS011;7737;51.578;7.268;2023-05-20T00:17:54;3.40;;;1.92;;
15271;SDS011;7737;51.578;7.268;2023-05-20T00:20:21;4.22;;;2.20;;
15271;SDS011;7737;51.578;7.268;2023-05-20T00:22:48;2.85;;;1.92;;
15271;SDS011;7737;51.578;7.268;2023-05-20T00:25:15;3.65;;;1.90;;
15271;SDS011;7737;51.578;7.268;2023-05-20T00:27:41;2.47;;;1.90;;
15271;SDS011;7737;51.578;7.268;2023-05-20T00:30:10;2.67;;;1.80;;
15271;SDS011;7737;51.578;7.268;2023-05-20T00:32:36;3.15;;;1.67;;
15271;SDS011;7737;51.578;7.268;2023-05-20T00:35:03;3.03;;;1.90;;
15271;SDS011;7737;51.578;7.268;2023-05-20T00:37:30;3.20;;;1.90;;
15271;SDS011;7737;51.578;7.268;2023-05-20T00:39:57;2.30;;;1.88;;
15271;SDS011;7737;51.578;7.268;2023-05-20T00:42:24;2.47;;;1.80;;
15271;SDS011;7737;51.578;7.268;2023-05-20T00:44:52;2.38;;;1.98;;
15271;SDS011;7737;51.578;7.268;2023-05-20T00:47:22;3.17;;;2.00;;
15271;SDS011;7737;51.578;7.268;2023-05-20T00:49:51;2.80;;;1.70;;
15271;SDS011;7737;51.578;7.268;2023-05-20T00:52:18;3.72;;;2.00;;
15271;SDS011;7737;51.578;7.268;2023-05-20T00:54:45;3.28;;;2.00;;
15271;SDS011;7737;51.578;7.268;2023-05-20T00:57:12;2.67;;;2.00;;
15271;SDS011;7737;51.578;7.268;2023-05-20T00:59:39;2.72;;;2.10;;
15271;SDS011;7737;51.578;7.268;2023-05-20T01:02:06;2.55;;;1.90;;
15271;SDS011;7737;51.578;7.268;2023-05-20T01:04:34;2.55;;;1.80;;
15271;SDS011;7737;51.578;7.268;2023-05-20T01:07:01;3.13;;;2.03;;
15271;SDS011;7737;51.578;7.268;2023-05-20T01:09:30;4.60;;;2.03;;
15271;SDS011;7737;51.578;7.268;2023-05-20T01:11:58;2.72;;;2.00;;
15271;SDS011;7737;51.578;7.268;2023-05-20T01:14:28;2.30;;;2.03;;
15271;SDS011;7737;51.578;7.268;2023-05-20T01:17:01;3.22;;;2.00;;
15271;SDS011;7737;51.578;7.268;2023-05-20T01:19:37;2.25;;;1.85;;
15271;SDS011;7737;51.578;7.268;2023-05-20T01:22:08;3.67;;;1.90;;
15271;SDS011;7737;51.578;7.268;2023-05-20T01:24:37;3.08;;;2.20;;
15271;SDS011;7737;51.578;7.268;2023-05-20T01:27:05;4.25;;;2.30;;
15271;SDS011;7737;51.578;7.268;2023-05-20T01:29:34;2.22;;;1.98;;
15271;SDS011;7737;51.578;7.268;2023-05-20T01:32:02;2.55;;;1.83;;
15271;SDS011;7737;51.578;7.268;2023-05-20T01:34:32;4.07;;;2.00;;
15271;SDS011;7737;51.578;7.268;2023-05-20T01:37:00;4.13;;;2.10;;
15271;SDS011;7737;51.578;7.268;2023-05-20T01:39:29;2.50;;;1.90;;
15271;SDS011;7737;51.578;7.268;2023-05-20T01:41:58;2.90;;;2.10;;
15271;SDS011;7737;51.578;7.268;2023-05-20T01:44:26;3.35;;;2.17;;
15271;SDS011;7737;51.578;7.268;2023-05-20T01:46:53;4.28;;;2.03;;
15271;SDS011;7737;51.578;7.268;2023-05-20T01:49:20;3.55;;;2.00;;
15271;SDS011;7737;51.578;7.268;2023-05-20T01:51:46;3.40;;;2.20;;
15271;SDS011;7737;51.578;7.268;2023-05-20T01:54:13;3.17;;;2.50;;
15271;SDS011;7737;51.578;7.268;2023-05-20T01:56:39;2.80;;;2.00;;
15271;SDS011;7737;51.578;7.268;2023-05-20T01:59:07;2.90;;;2.10;;
15271;SDS011;7737;51.578;7.268;2023-05-20T02:01:34;3.50;;;2.20;;
15271;SDS011;7737;51.578;7.268;2023-05-20T02:04:00;3.45;;;2.20;;
15271;SDS011;7737;51.578;7.268;2023-05-20T02:06:27;4.95;;;2.30;;
15271;SDS011;7737;51.578;7.268;2023-05-20T02:08:53;3.03;;;2.00;;
15271;SDS011;7737;51.578;7.268;2023-05-20T02:11:21;2.55;;;2.20;;
15271;SDS011;7737;51.578;7.268;2023-05-20T02:13:48;2.85;;;2.30;;
15271;SDS011;7737;51.578;7.268;2023-05-20T02:16:16;3.08;;;2.08;;
15271;SDS011;7737;51.578;7.268;2023-05-20T02:18:43;2.88;;;2.30;;
15271;SDS011;7737;51.578;7.268;2023-05-20T02:21:10;5.18;;;2.40;;
15271;SDS011;7737;51.578;7.268;2023-05-20T02:23:36;2.55;;;2.25;;
15271;SDS011;7737;51.578;7.268;2023-05-20T02:26:04;3.45;;;2.03;;
15271;SDS011;7737;51.578;7.268;2023-05-20T02:28:31;3.03;;;2.30;;
15271;SDS011;7737;51.578;7.268;2023-05-20T02:30:57;2.30;;;2.10;;
15271;SDS011;7737;51.578;7.268;2023-05-20T02:33:25;3.55;;;2.20;;
15271;SDS011;7737;51.578;7.268;2023-05-20T02:35:52;3.10;;;2.22;;
15271;SDS011;7737;51.578;7.268;2023-05-20T02:38:19;2.25;;;2.05;;
15271;SDS011;7737;51.578;7.268;2023-05-20T02:40:46;2.95;;;2.08;;
15271;SDS011;7737;51.578;7.268;2023-05-20T02:43:12;7.80;;;2.38;;
15271;SDS011;7737;51.578;7.268;2023-05-20T02:45:39;2.92;;;2.13;;
15271;SDS011;7737;51.578;7.268;2023-05-20T02:48:05;4.05;;;2.30;;
15271;SDS011;7737;51.578;7.268;2023-05-20T02:50:33;2.88;;;2.30;;
15271;SDS011;7737;51.578;7.268;2023-05-20T02:53:03;3.20;;;1.95;;
15271;SDS011;7737;51.578;7.268;2023-05-20T02:55:32;3.80;;;2.20;;
15271;SDS011;7737;51.578;7.268;2023-05-20T02:57:59;3.72;;;2.60;;
15271;SDS011;7737;51.578;7.268;2023-05-20T03:00:26;2.45;;;2.08;;
15271;SDS011;7737;51.578;7.268;2023-05-20T03:02:54;3.10;;;2.17;;
15271;SDS011;7737;51.578;7.268;2023-05-20T03:05:21;4.18;;;2.03;;
15271;SDS011;7737;51.578;7.268;2023-05-20T03:07:48;2.80;;;2.20;;
15271;SDS011;7737;51.578;7.268;2023-05-20T03:10:15;2.97;;;2.38;;
15271;SDS011;7737;51.578;7.268;2023-05-20T03:12:42;2.65;;;2.25;;
15271;SDS011;7737;51.578;7.268;2023-05-20T03:15:08;3.35;;;2.03;;
15271;SDS011;7737;51.578;7.268;2023-05-20T03:17:36;4.28;;;2.10;;
15271;SDS011;7737;51.578;7.268;2023-05-20T03:20:03;3.20;;;2.38;;
15271;SDS011;7737;51.578;7.268;2023-05-20T03:22:32;2.53;;;2.17;;
15271;SDS011;7737;51.578;7.268;2023-05-20T03:25:00;3.40;;;2.28;;
15271;SDS011;7737;51.578;7.268;2023-05-20T03:27:26;3.47;;;2.45;;
15271;SDS011;7737;51.578;7.268;2023-05-20T03:29:53;4.38;;;2.47;;
15271;SDS011;7737;51.578;7.268;2023-05-20T03:32:19;3.58;;;2.47;;
15271;SDS011;7737;51.578;7.268;2023-05-20T03:34:46;2.47;;;2.22;;
15271;SDS011;7737;51.578;7.268;2023-05-20T03:37:12;2.42;;;2.22;;
15271;SDS011;7737;51.578;7.268;2023-05-20T03:39:39;2.47;;;2.28;;
15271;SDS011;7737;51.578;7.268;2023-05-20T03:42:06;4.80;;;2.30;;
15271;SDS011;7737;51.578;7.268;2023-05-20T03:44:33;3.60;;;2.60;;
15271;SDS011;7737;51.578;7.268;2023-05-20T03:47:00;3.15;;;2.70;;
15271;SDS011;7737;51.578;7.268;2023-05-20T03:49:26;3.28;;;2.65;;
15271;SDS011;7737;51.578;7.268;2023-05-20T03:51:52;3.10;;;2.30;;
15271;SDS011;7737;51.578;7.268;2023-05-20T03:54:19;3.88;;;2.88;;
15271;SDS011;7737;51.578;7.268;2023-05-20T03:56:45;4.25;;;2.65;;
15271;SDS011;7737;51.578;7.268;2023-05-20T03:59:14;5.40;;;2.45;;
15271;SDS011;7737;51.578;7.268;2023-05-20T04:01:41;3.70;;;2.42;;
15271;SDS011;7737;51.578;7.268;2023-05-20T04:04:08;3.50;;;2.50;;
15271;SDS011;7737;51.578;7.268;2023-05-20T04:06:34;2.80;;;2.42;;
15271;SDS011;7737;51.578;7.268;2023-05-20T04:09:01;3.67;;;2.70;;
15271;SDS011;7737;51.578;7.268;2023-05-20T04:11:28;4.10;;;2.50;;
15271;SDS011;7737;51.578;7.268;2023-05-20T04:13:54;3.40;;;2.55;;
15271;SDS011;7737;51.578;7.268;2023-05-20T04:16:23;3.20;;;2.30;;
15271;SDS011;7737;51.578;7.268;2023-05-20T04:18:50;5.55;;;2.67;;
15271;SDS011;7737;51.578;7.268;2023-05-20T04:21:17;4.25;;;2.35;;
15271;SDS011;7737;51.578;7.268;2023-05-20T04:23:43;3.60;;;2.90;;
15271;SDS011;7737;51.578;7.268;2023-05-20T04:26:10;3.45;;;2.53;;
15271;SDS011;7737;51.578;7.268;2023-05-20T04:28:36;3.53;;;2.70;;
15271;SDS011;7737;51.578;7.268;2023-05-20T04:31:06;3.63;;;2.83;;
15271;SDS011;7737;51.578;7.268;2023-05-20T04:33:34;3.97;;;2.65;;
15271;SDS011;7737;51.578;7.268;2023-05-20T04:36:02;3.95;;;2.45;;
15271;SDS011;7737;51.578;7.268;2023-05-20T04:38:29;3.45;;;2.53;;
15271;SDS011;7737;51.578;7.268;2023-05-20T04:40:56;4.10;;;2.72;;
15271;SDS011;7737;51.578;7.268;2023-05-20T04:43:23;4.10;;;2.70;;
15271;SDS011;7737;51.578;7.268;2023-05-20T04:45:50;5.03;;;2.60;;
15271;SDS011;7737;51.578;7.268;2023-05-20T04:48:18;3.88;;;2.50;;
15271;SDS011;7737;51.578;7.268;2023-05-20T04:50:46;3.00;;;2.42;;
15271;SDS011;7737;51.578;7.268;2023-05-20T04:53:13;5.40;;;2.58;;
15271;SDS011;7737;51.578;7.268;2023-05-20T04:55:40;4.38;;;2.50;;
15271;SDS011;7737;51.578;7.268;2023-05-20T04:58:07;4.30;;;2.88;;
15271;SDS011;7737;51.578;7.268;2023-05-20T05:00:39;2.67;;;2.47;;
15271;SDS011;7737;51.578;7.268;2023-05-20T05:03:05;4.30;;;2.60;;
15271;SDS011;7737;51.578;7.268;2023-05-20T05:05:33;5.63;;;2.60;;
15271;SDS011;7737;51.578;7.268;2023-05-20T05:08:01;2.78;;;2.20;;
15271;SDS011;7737;51.578;7.268;2023-05-20T05:10:28;3.10;;;2.50;;
15271;SDS011;7737;51.578;7.268;2023-05-20T05:12:54;4.10;;;2.58;;
15271;SDS011;7737;51.578;7.268;2023-05-20T05:15:21;3.25;;;2.53;;
15271;SDS011;7737;51.578;7.268;2023-05-20T05:17:47;3.13;;;2.67;;
15271;SDS011;7737;51.578;7.268;2023-05-20T05:20:14;3.13;;;2.47;;
15271;SDS011;7737;51.578;7.268;2023-05-20T05:22:41;3.40;;;2.50;;
15271;SDS011;7737;51.578;7.268;2023-05-20T05:25:10;3.95;;;2.67;;
15271;SDS011;7737;51.578;7.268;2023-05-20T05:27:38;5.40;;;2.53;;
15271;SDS011;7737;51.578;7.268;2023-05-20T05:30:05;4.00;;;2.70;;
15271;SDS011;7737;51.578;7.268;2023-05-20T05:32:32;4.95;;;2.95;;
15271;SDS011;7737;51.578;7.268;2023-05-20T05:34:59;3.38;;;2.47;;
15271;SDS011;7737;51.578;7.268;2023-05-20T05:37:26;5.00;;;2.90;;
15271;SDS011;7737;51.578;7.268;2023-05-20T05:39:52;3.65;;;2.90;;
15271;SDS011;7737;51.578;7.268;2023-05-20T05:42:20;3.10;;;2.78;;
15271;SDS011;7737;51.578;7.268;2023-05-20T05:44:47;3.83;;;2.60;;
15271;SDS011;7737;51.578;7.268;2023-05-20T05:47:13;3.67;;;2.80;;
15271;SDS011;7737;51.578;7.268;2023-05-20T05:49:40;3.42;;;2.70;;
15271;SDS011;7737;51.578;7.268;2023-05-20T05:52:07;4.03;;;2.60;;
15271;SDS011;7737;51.578;7.268;2023-05-20T05:54:33;5.03;;;2.65;;
15271;SDS011;7737;51.578;7.268;2023-05-20T05:57:00;3.17;;;2.65;;
15271;SDS011;7737;51.578;7.268;2023-05-20T05:59:28;4.82;;;2.80;;
15271;SDS011;7737;51.578;7.268;2023-05-20T06:01:54;4.13;;;2.75;;
15271;SDS011;7737;51.578;7.268;2023-05-20T06:04:21;4.45;;;2.88;;
15271;SDS011;7737;51.578;7.268;2023-05-20T06:06:47;3.10;;;2.80;;
15271;SDS011;7737;51.578;7.268;2023-05-20T06:09:14;3.63;;;2.90;;
15271;SDS011;7737;51.578;7.268;2023-05-20T06:11:40;4.45;;;3.05;;
15271;SDS011;7737;51.578;7.268;2023-05-20T06:14:08;4.05;;;3.10;;
15271;SDS011;7737;51.578;7.268;2023-05-20T06:16:36;6.95;;;3.05;;
15271;SDS011;7737;51.578;7.268;2023-05-20T06:19:03;3.00;;;2.65;;
15271;SDS011;7737;51.578;7.268;2023-05-20T06:21:30;7.28;;;3.20;;
15271;SDS011;7737;51.578;7.268;2023-05-20T06:23:57;4.50;;;2.92;;
15271;SDS011;7737;51.578;7.268;2023-05-20T06:26:23;4.70;;;3.00;;
15271;SDS011;7737;51.578;7.268;2023-05-20T06:28:50;4.30;;;3.13;;
15271;SDS011;7737;51.578;7.268;2023-05-20T06:31:17;3.38;;;3.00;;
15271;SDS011;7737;51.578;7.268;2023-05-20T06:33:45;3.78;;;3.35;;
15271;SDS011;7737;51.578;7.268;2023-05-20T06:36:11;4.70;;;3.05;;
15271;SDS011;7737;51.578;7.268;2023-05-20T06:38:38;5.22;;;3.10;;
15271;SDS011;7737;51.578;7.268;2023-05-20T06:41:04;3.67;;;3.20;;
15271;SDS011;7737;51.578;7.268;2023-05-20T06:43:31;4.93;;;3.30;;
15271;SDS011;7737;51.578;7.268;2023-05-20T06:45:58;4.50;;;3.50;;
15271;SDS011;7737;51.578;7.268;2023-05-20T06:48:24;6.07;;;3.20;;
15271;SDS011;7737;51.578;7.268;2023-05-20T06:50:52;5.30;;;3.60;;
15271;SDS011;7737;51.578;7.268;2023-05-20T06:53:19;3.80;;;3.40;;
15271;SDS011;7737;51.578;7.268;2023-05-20T06:55:45;4.18;;;3.60;;
15271;SDS011;7737;51.578;7.268;2023-05-20T06:58:12;4.30;;;3.28;;
15271;SDS011;7737;51.578;7.268;2023-05-20T07:00:38;3.90;;;3.45;;
15271;SDS011;7737;51.578;7.268;2023-05-20T07:03:05;7.18;;;3.92;;
15271;SDS011;7737;51.578;7.268;2023-05-20T07:05:32;5.50;;;3.47;;
15271;SDS011;7737;51.578;7.268;2023-05-20T07:07:59;6.25;;;3.58;;
15271;SDS011;7737;51.578;7.268;2023-05-20T07:10:26;4.97;;;3.90;;
15271;SDS011;7737;51.578;7.268;2023-05-20T07:12:53;5.10;;;3.60;;
15271;SDS011;7737;51.578;7.268;2023-05-20T07:15:19;4.15;;;3.75;;
15271;SDS011;7737;51.578;7.268;2023-05-20T07:17:46;4.90;;;3.70;;
15271;SDS011;7737;51.578;7.268;2023-05-20T07:20:12;5.03;;;3.80;;
15271;SDS011;7737;51.578;7.268;2023-05-20T07:22:39;6.47;;;4.43;;
15271;SDS011;7737;51.578;7.268;2023-05-20T07:25:07;5.00;;;4.50;;
15271;SDS011;7737;51.578;7.268;2023-05-20T07:27:34;5.43;;;4.32;;
15271;SDS011;7737;51.578;7.268;2023-05-20T07:30:00;4.60;;;4.10;;
15271;SDS011;7737;51.578;7.268;2023-05-20T07:32:27;5.80;;;4.30;;
15271;SDS011;7737;51.578;7.268;2023-05-20T07:34:53;5.25;;;4.03;;
15271;SDS011;7737;51.578;7.268;2023-05-20T07:37:20;5.43;;;4.60;;
15271;SDS011;7737;51.578;7.268;2023-05-20T07:39:47;5.28;;;4.78;;
15271;SDS011;7737;51.578;7.268;2023-05-20T07:42:15;7.65;;;4.78;;
15271;SDS011;7737;51.578;7.268;2023-05-20T07:44:41;6.72;;;4.65;;
15271;SDS011;7737;51.578;7.268;2023-05-20T07:47:09;5.10;;;4.55;;
15271;SDS011;7737;51.578;7.268;2023-05-20T07:49:35;5.75;;;4.40;;
15271;SDS011;7737;51.578;7.268;2023-05-20T07:52:02;6.50;;;4.22;;
15271;SDS011;7737;51.578;7.268;2023-05-20T07:54:28;4.97;;;4.50;;
15271;SDS011;7737;51.578;7.268;2023-05-20T07:56:55;5.05;;;4.47;;
15271;SDS011;7737;51.578;7.268;2023-05-20T07:59:23;5.32;;;4.82;;
15271;SDS011;7737;51.578;7.268;2023-05-20T08:01:49;4.70;;;4.18;;
15271;SDS011;7737;51.578;7.268;2023-05-20T08:04:16;7.07;;;4.85;;
15271;SDS011;7737;51.578;7.268;2023-05-20T08:06:42;8.82;;;4.82;;
15271;SDS011;7737;51.578;7.268;2023-05-20T08:09:09;5.47;;;4.80;;
15271;SDS011;7737;51.578;7.268;2023-05-20T08:11:36;6.35;;;4.90;;
15271;SDS011;7737;51.578;7.268;2023-05-20T08:14:02;6.90;;;5.20;;
15271;SDS011;7737;51.578;7.268;2023-05-20T08:16:30;5.30;;;4.80;;
15271;SDS011;7737;51.578;7.268;2023-05-20T08:18:57;5.60;;;4.72;;
15271;SDS011;7737;51.578;7.268;2023-05-20T08:21:23;7.07;;;5.40;;
15271;SDS011;7737;51.578;7.268;2023-05-20T08:23:50;6.10;;;5.25;;
15271;SDS011;7737;51.578;7.268;2023-05-20T08:26:17;6.90;;;5.03;;
15271;SDS011;7737;51.578;7.268;2023-05-20T08:28:43;6.45;;;5.22;;
15271;SDS011;7737;51.578;7.268;2023-05-20T08:31:10;6.40;;;5.35;;
15271;SDS011;7737;51.578;7.268;2023-05-20T08:33:38;5.82;;;5.20;;
15271;SDS011;7737;51.578;7.268;2023-05-20T08:36:05;5.95;;;5.20;;
15271;SDS011;7737;51.578;7.268;2023-05-20T08:38:32;6.63;;;5.00;;
15271;SDS011;7737;51.578;7.268;2023-05-20T08:40:58;6.90;;;5.30;;
15271;SDS011;7737;51.578;7.268;2023-05-20T08:43:25;5.43;;;4.82;;
15271;SDS011;7737;51.578;7.268;2023-05-20T08:45:52;7.25;;;5.78;;
15271;SDS011;7737;51.578;7.268;2023-05-20T08:48:19;6.53;;;5.80;;
15271;SDS011;7737;51.578;7.268;2023-05-20T08:50:50;6.30;;;5.80;;
15271;SDS011;7737;51.578;7.268;2023-05-20T08:53:17;7.45;;;6.30;;
15271;SDS011;7737;51.578;7.268;2023-05-20T08:55:45;6.50;;;5.88;;
15271;SDS011;7737;51.578;7.268;2023-05-20T08:58:14;5.88;;;5.30;;
15271;SDS011;7737;51.578;7.268;2023-05-20T09:00:41;6.20;;;5.57;;
15271;SDS011;7737;51.578;7.268;2023-05-20T09:03:08;6.07;;;5.40;;
15271;SDS011;7737;51.578;7.268;2023-05-20T09:05:35;6.72;;;5.95;;
15271;SDS011;7737;51.578;7.268;2023-05-20T09:08:07;6.32;;;5.65;;
15271;SDS011;7737;51.578;7.268;2023-05-20T09:10:34;6.72;;;5.82;;
15271;SDS011;7737;51.578;7.268;2023-05-20T09:13:02;8.40;;;4.97;;
15271;SDS011;7737;51.578;7.268;2023-05-20T09:15:30;6.18;;;5.57;;
15271;SDS011;7737;51.578;7.268;2023-05-20T09:17:58;5.90;;;5.30;;
15271;SDS011;7737;51.578;7.268;2023-05-20T09:20:26;6.00;;;5.43;;
15271;SDS011;7737;51.578;7.268;2023-05-20T09:22:57;6.97;;;5.75;;
15271;SDS011;7737;51.578;7.268;2023-05-20T09:25:26;5.97;;;5.32;;
15271;SDS011;7737;51.578;7.268;2023-05-20T09:27:53;6.32;;;5.72;;
15271;SDS011;7737;51.578;7.268;2023-05-20T09:30:19;5.97;;;5.38;;
15271;SDS011;7737;51.578;7.268;2023-05-20T09:32:51;7.40;;;5.13;;
15271;SDS011;7737;51.578;7.268;2023-05-20T09:35:18;6.10;;;5.25;;
15271;SDS011;7737;51.578;7.268;2023-05-20T09:37:45;5.28;;;4.78;;
15271;SDS011;7737;51.578;7.268;2023-05-20T09:40:13;6.20;;;5.43;;
15271;SDS011;7737;51.578;7.268;2023-05-20T09:42:43;5.57;;;4.82;;
15271;SDS011;7737;51.578;7.268;2023-05-20T09:45:15;5.15;;;4.65;;
15271;SDS011;7737;51.578;7.268;2023-05-20T09:47:42;6.00;;;5.28;;
15271;SDS011;7737;51.578;7.268;2023-05-20T09:50:10;6.13;;;4.82;;
15271;SDS011;7737;51.578;7.268;2023-05-20T09:52:38;6.25;;;5.13;;
15271;SDS011;7737;51.578;7.268;2023-05-20T09:55:07;6.63;;;4.90;;
15271;SDS011;7737;51.578;7.268;2023-05-20T09:57:36;4.80;;;4.40;;
15271;SDS011;7737;51.578;7.268;2023-05-20T10:00:05;6.22;;;4.47;;
15271;SDS011;7737;51.578;7.268;2023-05-20T10:02:34;5.75;;;4.88;;
15271;SDS011;7737;51.578;7.268;2023-05-20T10:05:03;6.63;;;4.72;;
15271;SDS011;7737;51.578;7.268;2023-05-20T10:07:42;6.32;;;4.82;;
15271;SDS011;7737;51.578;7.268;2023-05-20T10:10:31;4.75;;;4.25;;
15271;SDS011;7737;51.578;7.268;2023-05-20T10:13:05;7.47;;;5.20;;
15271;SDS011;7737;51.578;7.268;2023-05-20T10:15:43;6.00;;;5.07;;
15271;SDS011;7737;51.578;7.268;2023-05-20T10:18:19;4.93;;;4.53;;
15271;SDS011;7737;51.578;7.268;2023-05-20T10:20:57;8.05;;;4.65;;
15271;SDS011;7737;51.578;7.268;2023-05-20T10:23:26;4.72;;;4.25;;
15271;SDS011;7737;51.578;7.268;2023-05-20T10:25:54;5.93;;;4.75;;
15271;SDS011;7737;51.578;7.268;2023-05-20T10:28:28;5.10;;;4.60;;
15271;SDS011;7737;51.578;7.268;2023-05-20T10:30:57;4.65;;;4.05;;
15271;SDS011;7737;51.578;7.268;2023-05-20T10:33:25;5.35;;;4.78;;
15271;SDS011;7737;51.578;7.268;2023-05-20T10:35:52;4.95;;;4.55;;
15271;SDS011;7737;51.578;7.268;2023-05-20T10:38:19;6.00;;;4.50;;
15271;SDS011;7737;51.578;7.268;2023-05-20T10:40:46;5.10;;;4.60;;
15271;SDS011;7737;51.578;7.268;2023-05-20T10:43:13;4.97;;;4.53;;
15271;SDS011;7737;51.578;7.268;2023-05-20T10:45:47;5.32;;;4.78;;
15271;SDS011;7737;51.578;7.268;2023-05-20T10:48:26;7.15;;;4.88;;
15271;SDS011;7737;51.578;7.268;2023-05-20T10:50:54;5.78;;;4.55;;
15271;SDS011;7737;51.578;7.268;2023-05-20T10:53:22;5.80;;;5.13;;
15271;SDS011;7737;51.578;7.268;2023-05-20T10:55:50;5.43;;;4.40;;
15271;SDS011;7737;51.578;7.268;2023-05-20T10:58:18;5.82;;;4.63;;
15271;SDS011;7737;51.578;7.268;2023-05-20T11:00:47;5.40;;;4.85;;
15271;SDS011;7737;51.578;7.268;2023-05-20T11:03:15;7.20;;;5.00;;
15271;SDS011;7737;51.578;7.268;2023-05-20T11:05:44;4.93;;;4.47;;
15271;SDS011;7737;51.578;7.268;2023-05-20T11:08:12;7.30;;;4.97;;
15271;SDS011;7737;51.578;7.268;2023-05-20T11:10:38;6.07;;;5.30;;
15271;SDS011;7737;51.578;7.268;2023-05-20T11:13:07;5.10;;;4.70;;
15271;SDS011;7737;51.578;7.268;2023-05-20T11:15:34;4.93;;;4.40;;
15271;SDS011;7737;51.578;7.268;2023-05-20T11:18:01;4.70;;;4.20;;
15271;SDS011;7737;51.578;7.268;2023-05-20T11:20:29;5.95;;;4.22;;
15271;SDS011;7737;51.578;7.268;2023-05-20T11:23:00;4.50;;;4.10;;
15271;SDS011;7737;51.578;7.268;2023-05-20T11:25:27;5.25;;;4.07;;
15271;SDS011;7737;51.578;7.268;2023-05-20T11:27:54;4.57;;;3.60;;
15271;SDS011;7737;51.578;7.268;2023-05-20T11:30:21;4.57;;;3.88;;
15271;SDS011;7737;51.578;7.268;2023-05-20T11:32:55;4.38;;;3.97;;
15271;SDS011;7737;51.578;7.268;2023-05-20T11:35:23;4.22;;;3.83;;
15271;SDS011;7737;51.578;7.268;2023-05-20T11:37:53;5.65;;;3.88;;
15271;SDS011;7737;51.578;7.268;2023-05-20T11:40:26;5.05;;;4.05;;
15271;SDS011;7737;51.578;7.268;2023-05-20T11:42:53;4.88;;;3.80;;
15271;SDS011;7737;51.578;7.268;2023-05-20T11:45:21;4.07;;;3.50;;
15271;SDS011;7737;51.578;7.268;2023-05-20T11:47:57;3.88;;;3.47;;
15271;SDS011;7737;51.578;7.268;2023-05-20T11:50:25;5.32;;;3.90;;
15271;SDS011;7737;51.578;7.268;2023-05-20T11:53:01;5.57;;;3.92;;
15271;SDS011;7737;51.578;7.268;2023-05-20T11:55:30;4.18;;;3.38;;
15271;SDS011;7737;51.578;7.268;2023-05-20T11:57:57;4.00;;;3.60;;
15271;SDS011;7737;51.578;7.268;2023-05-20T12:00:23;4.93;;;3.83;;
15271;SDS011;7737;51.578;7.268;2023-05-20T12:02:50;4.00;;;3.65;;
15271;SDS011;7737;51.578;7.268;2023-05-20T12:05:16;6.65;;;4.10;;
15271;SDS011;7737;51.578;7.268;2023-05-20T12:07:43;3.70;;;3.38;;
15271;SDS011;7737;51.578;7.268;2023-05-20T12:10:10;4.35;;;3.95;;
15271;SDS011;7737;51.578;7.268;2023-05-20T12:12:39;4.28;;;3.70;;
15271;SDS011;7737;51.578;7.268;2023-05-20T12:15:05;4.93;;;3.33;;
15271;SDS011;7737;51.578;7.268;2023-05-20T12:17:45;5.25;;;3.20;;
15271;SDS011;7737;51.578;7.268;2023-05-20T12:20:14;3.75;;;3.33;;
15271;SDS011;7737;51.578;7.268;2023-05-20T12:22:41;5.32;;;3.95;;
15271;SDS011;7737;51.578;7.268;2023-05-20T12:25:09;4.75;;;3.55;;
15271;SDS011;7737;51.578;7.268;2023-05-20T12:27:38;3.85;;;3.42;;
15271;SDS011;7737;51.578;7.268;2023-05-20T12:30:05;4.85;;;3.70;;
15271;SDS011;7737;51.578;7.268;2023-05-20T12:32:33;4.57;;;3.65;;
15271;SDS011;7737;51.578;7.268;2023-05-20T12:35:00;3.70;;;3.40;;
15271;SDS011;7737;51.578;7.268;2023-05-20T12:37:27;4.22;;;3.25;;
15271;SDS011;7737;51.578;7.268;2023-05-20T12:39:53;3.42;;;3.13;;
15271;SDS011;7737;51.578;7.268;2023-05-20T12:42:20;3.83;;;3.20;;
15271;SDS011;7737;51.578;7.268;2023-05-20T12:44:48;4.70;;;3.15;;
15271;SDS011;7737;51.578;7.268;2023-05-20T12:47:15;3.72;;;3.08;;
15271;SDS011;7737;51.578;7.268;2023-05-20T12:49:41;2.95;;;2.72;;
15271;SDS011;7737;51.578;7.268;2023-05-20T12:52:08;3.35;;;2.90;;
15271;SDS011;7737;51.578;7.268;2023-05-20T12:54:34;4.47;;;2.80;;
15271;SDS011;7737;51.578;7.268;2023-05-20T12:57:01;3.03;;;2.83;;
15271;SDS011;7737;51.578;7.268;2023-05-20T12:59:28;4.55;;;2.80;;
15271;SDS011;7737;51.578;7.268;2023-05-20T13:01:55;4.70;;;2.63;;
15271;SDS011;7737;51.578;7.268;2023-05-20T13:04:22;3.72;;;2.75;;
15271;SDS011;7737;51.578;7.268;2023-05-20T13:06:49;2.60;;;2.40;;
15271;SDS011;7737;51.578;7.268;2023-05-20T13:09:15;3.42;;;2.55;;
15271;SDS011;7737;51.578;7.268;2023-05-20T13:11:42;3.47;;;2.33;;
15271;SDS011;7737;51.578;7.268;2023-05-20T13:14:09;3.60;;;2.42;;
15271;SDS011;7737;51.578;7.268;2023-05-20T13:16:35;3.35;;;2.40;;
15271;SDS011;7737;51.578;7.268;2023-05-20T13:19:03;3.33;;;2.28;;
15271;SDS011;7737;51.578;7.268;2023-05-20T13:21:30;2.50;;;2.30;;
15271;SDS011;7737;51.578;7.268;2023-05-20T13:23:56;3.13;;;2.80;;
15271;SDS011;7737;51.578;7.268;2023-05-20T13:26:23;3.35;;;2.47;;
15271;SDS011;7737;51.578;7.268;2023-05-20T13:28:50;2.58;;;2.38;;
15271;SDS011;7737;51.578;7.268;2023-05-20T13:31:16;4.82;;;2.63;;
15271;SDS011;7737;51.578;7.268;2023-05-20T13:33:43;3.25;;;2.75;;
15271;SDS011;7737;51.578;7.268;2023-05-20T13:36:11;3.28;;;2.85;;
15271;SDS011;7737;51.578;7.268;2023-05-20T13:38:38;3.28;;;2.53;;
15271;SDS011;7737;51.578;7.268;2023-05-20T13:41:05;3.67;;;2.63;;
15271;SDS011;7737;51.578;7.268;2023-05-20T13:43:31;3.72;;;3.00;;
15271;SDS011;7737;51.578;7.268;2023-05-20T13:45:58;3.00;;;2.70;;
15271;SDS011;7737;51.578;7.268;2023-05-20T13:48:24;4.70;;;2.60;;
15271;SDS011;7737;51.578;7.268;2023-05-20T13:50:51;4.43;;;2.60;;
15271;SDS011;7737;51.578;7.268;2023-05-20T13:53:19;2.95;;;2.70;;
15271;SDS011;7737;51.578;7.268;2023-05-20T13:55:45;2.72;;;2.50;;
15271;SDS011;7737;51.578;7.268;2023-05-20T13:58:12;3.25;;;2.78;;
15271;SDS011;7737;51.578;7.268;2023-05-20T14:00:39;4.32;;;2.70;;
15271;SDS011;7737;51.578;7.268;2023-05-20T14:03:06;2.97;;;2.65;;
15271;SDS011;7737;51.578;7.268;2023-05-20T14:05:34;3.28;;;2.88;;
15271;SDS011;7737;51.578;7.268;2023-05-20T14:08:01;3.10;;;2.80;;
15271;SDS011;7737;51.578;7.268;2023-05-20T14:10:29;3.63;;;2.67;;
15271;SDS011;7737;51.578;7.268;2023-05-20T14:12:56;3.78;;;3.00;;
15271;SDS011;7737;51.578;7.268;2023-05-20T14:15:25;3.65;;;2.92;;
15271;SDS011;7737;51.578;7.268;2023-05-20T14:17:54;3.70;;;3.08;;
15271;SDS011;7737;51.578;7.268;2023-05-20T14:20:21;3.33;;;3.08;;
15271;SDS011;7737;51.578;7.268;2023-05-20T14:22:48;3.67;;;3.28;;
15271;SDS011;7737;51.578;7.268;2023-05-20T14:25:15;4.03;;;3.00;;
15271;SDS011;7737;51.578;7.268;2023-05-20T14:27:43;3.42;;;2.80;;
15271;SDS011;7737;51.578;7.268;2023-05-20T14:30:10;4.50;;;3.00;;
15271;SDS011;7737;51.578;7.268;2023-05-20T14:32:37;4.65;;;3.10;;
15271;SDS011;7737;51.578;7.268;2023-05-20T14:35:04;3.28;;;2.97;;
15271;SDS011;7737;51.578;7.268;2023-05-20T14:37:31;3.90;;;3.50;;
15271;SDS011;7737;51.578;7.268;2023-05-20T14:40:02;4.07;;;3.47;;
15271;SDS011;7737;51.578;7.268;2023-05-20T14:42:31;4.22;;;3.10;;
15271;SDS011;7737;51.578;7.268;2023-05-20T14:44:59;5.00;;;3.50;;
15271;SDS011;7737;51.578;7.268;2023-05-20T14:47:26;6.47;;;3.10;;
15271;SDS011;7737;51.578;7.268;2023-05-20T14:49:53;3.65;;;3.13;;
15271;SDS011;7737;51.578;7.268;2023-05-20T14:52:19;3.83;;;3.47;;
15271;SDS011;7737;51.578;7.268;2023-05-20T14:54:46;5.07;;;3.03;;
15271;SDS011;7737;51.578;7.268;2023-05-20T14:57:13;3.58;;;3.28;;
15271;SDS011;7737;51.578;7.268;2023-05-20T14:59:40;3.80;;;3.50;;
15271;SDS011;7737;51.578;7.268;2023-05-20T15:02:08;4.85;;;3.33;;